sensor_id;sensor_type;location;lat;lon;timestamp;pressure;altitude;pressure_sealevel;temperature;humidity
37860;BME280;23698;52.014;5.190;2023-08-06T05:02:36;100368.53;;;24.49;100.00
37860;BME280;23698;52.014;5.190;2023-08-06T05:05:23;100357.84;;;23.60;100.00
37860;BME280;23698;52.014;5.190;2023-08-06T05:08:13;100367.22;;;23.93;100.00
37860;BME280;23698;52.014;5.190;2023-08-06T05:11:00;100361.72;;;22.80;100.00
37860;BME280;23698;52.014;5.190;2023-08-06T05:13:46;100364.97;;;22.92;100.00
37860;BME280;23698;52.014;5.190;2023-08-06T08:18:20;100559.97;;;22.38;100.00
37860;BME280;23698;52.014;5.190;2023-08-06T08:21:08;100561.63;;;23.30;100.00
37860;BME280;23698;52.014;5.190;2023-08-06T08:23:54;100564.06;;;23.42;100.00
37860;BME280;23698;52.014;5.190;2023-08-06T08:26:40;100565.34;;;22.95;100.00
37860;BME280;23698;52.014;5.190;2023-08-06T08:29:26;100557.81;;;23.26;100.00
37860;BME280;23698;52.014;5.190;2023-08-06T08:32:12;100562.94;;;22.68;100.00
37860;BME280;23698;52.014;5.190;2023-08-06T08:35:00;100571.53;;;22.56;100.00
37860;BME280;23698;52.014;5.190;2023-08-06T08:37:47;100574.56;;;22.18;100.00
37860;BME280;23698;52.014;5.190;2023-08-06T08:40:34;100572.84;;;21.66;100.00
37860;BME280;23698;52.014;5.190;2023-08-06T08:43:23;100572.88;;;21.86;100.00
37860;BME280;23698;52.014;5.190;2023-08-06T08:46:11;100571.81;;;22.39;100.00
37860;BME280;23698;52.014;5.190;2023-08-06T08:49:02;100566.66;;;23.23;100.00
37860;BME280;23698;52.014;5.190;2023-08-06T08:51:50;100578.13;;;22.70;100.00
37860;BME280;23698;52.014;5.190;2023-08-06T08:54:40;100578.72;;;22.41;100.00
37860;BME280;23698;52.014;5.190;2023-08-06T08:57:29;100575.72;;;23.34;100.00
37860;BME280;23698;52.014;5.190;2023-08-06T09:00:16;100578.81;;;23.82;100.00
37860;BME280;23698;52.014;5.190;2023-08-06T09:03:03;100586.69;;;22.79;100.00
37860;BME280;23698;52.014;5.190;2023-08-06T09:05:53;100583.94;;;22.74;100.00
37860;BME280;23698;52.014;5.190;2023-08-06T09:08:43;100591.38;;;22.78;100.00
37860;BME280;23698;52.014;5.190;2023-08-06T09:11:33;100590.31;;;22.23;100.00
37860;BME280;23698;52.014;5.190;2023-08-06T09:14:24;100596.38;;;23.52;100.00
37860;BME280;23698;52.014;5.190;2023-08-06T09:17:11;100598.50;;;23.15;100.00
37860;BME280;23698;52.014;5.190;2023-08-06T09:19:58;100600.00;;;22.36;100.00
37860;BME280;23698;52.014;5.190;2023-08-06T09:22:44;100606.22;;;21.64;100.00
37860;BME280;23698;52.014;5.190;2023-08-06T09:29:30;100609.78;;;21.49;100.00
37860;BME280;23698;52.014;5.190;2023-08-06T09:32:17;100609.34;;;22.66;100.00
37860;BME280;23698;52.014;5.190;2023-08-06T09:35:03;100618.50;;;22.56;100.00
37860;BME280;23698;52.014;5.190;2023-08-06T09:37:50;100626.75;;;22.25;100.00
37860;BME280;23698;52.014;5.190;2023-08-06T09:40:36;100632.25;;;22.76;100.00
37860;BME280;23698;52.014;5.190;2023-08-06T09:43:22;100634.75;;;22.27;100.00
37860;BME280;23698;52.014;5.190;2023-08-06T09:46:13;100633.41;;;22.65;100.00
37860;BME280;23698;52.014;5.190;2023-08-06T09:49:02;100633.56;;;23.25;100.00
37860;BME280;23698;52.014;5.190;2023-08-06T09:51:48;100636.97;;;22.55;100.00
37860;BME280;23698;52.014;5.190;2023-08-06T09:54:37;100647.69;;;23.18;100.00
37860;BME280;23698;52.014;5.190;2023-08-06T09:57:23;100645.34;;;23.51;100.00
37860;BME280;23698;52.014;5.190;2023-08-06T10:00:11;100651.91;;;22.44;100.00
37860;BME280;23698;52.014;5.190;2023-08-06T10:03:00;100663.44;;;23.23;100.00
37860;BME280;23698;52.014;5.190;2023-08-06T10:05:47;100655.50;;;23.71;100.00
37860;BME280;23698;52.014;5.190;2023-08-06T10:08:34;100659.63;;;22.73;100.00
37860;BME280;23698;52.014;5.190;2023-08-06T10:11:21;100649.63;;;22.97;100.00
37860;BME280;23698;52.014;5.190;2023-08-06T10:14:08;100661.38;;;23.60;100.00
37860;BME280;23698;52.014;5.190;2023-08-06T10:51:40;100680.97;;;24.63;100.00
37860;BME280;23698;52.014;5.190;2023-08-06T10:54:26;100671.69;;;23.44;100.00
37860;BME280;23698;52.014;5.190;2023-08-06T10:57:13;100672.25;;;23.30;100.00
37860;BME280;23698;52.014;5.190;2023-08-06T10:59:59;100674.47;;;23.33;100.00
37860;BME280;23698;52.014;5.190;2023-08-06T11:02:48;100676.47;;;22.87;100.00
37860;BME280;23698;52.014;5.190;2023-08-06T11:05:35;100674.03;;;22.65;100.00
37860;BME280;23698;52.014;5.190;2023-08-06T11:08:26;100676.84;;;24.21;100.00
37860;BME280;23698;52.014;5.190;2023-08-06T11:11:12;100686.84;;;24.17;100.00
37860;BME280;23698;52.014;5.190;2023-08-06T11:13:59;100685.75;;;23.52;100.00
37860;BME280;23698;52.014;5.190;2023-08-06T11:16:45;100685.25;;;24.05;100.00
37860;BME280;23698;52.014;5.190;2023-08-06T11:19:31;100688.41;;;24.28;100.00
37860;BME280;23698;52.014;5.190;2023-08-06T11:22:17;100693.09;;;23.88;100.00
37860;BME280;23698;52.014;5.190;2023-08-06T11:25:06;100695.53;;;22.52;100.00
37860;BME280;23698;52.014;5.190;2023-08-06T11:27:52;100696.75;;;23.73;100.00
37860;BME280;23698;52.014;5.190;2023-08-06T11:30:39;100694.88;;;23.48;100.00
37860;BME280;23698;52.014;5.190;2023-08-06T11:33:25;100693.09;;;23.83;100.00
37860;BME280;23698;52.014;5.190;2023-08-06T11:36:12;100700.78;;;22.74;100.00
37860;BME280;23698;52.014;5.190;2023-08-06T11:38:58;100697.88;;;23.62;100.00
37860;BME280;23698;52.014;5.190;2023-08-06T11:41:46;100701.88;;;24.00;100.00
37860;BME280;23698;52.014;5.190;2023-08-06T11:44:34;100698.50;;;24.48;100.00
37860;BME280;23698;52.014;5.190;2023-08-06T11:47:21;100704.59;;;23.40;100.00
37860;BME280;23698;52.014;5.190;2023-08-06T11:50:07;100722.66;;;24.82;100.00
37860;BME280;23698;52.014;5.190;2023-08-06T11:52:55;100713.72;;;24.56;100.00
37860;BME280;23698;52.014;5.190;2023-08-06T11:55:45;100712.41;;;23.17;100.00
37860;BME280;23698;52.014;5.190;2023-08-06T11:58:32;100722.25;;;23.54;100.00
37860;BME280;23698;52.014;5.190;2023-08-06T12:02:20;100722.09;;;22.79;100.00
37860;BME280;23698;52.014;5.190;2023-08-06T12:05:12;100707.13;;;23.26;100.00
37860;BME280;23698;52.014;5.190;2023-08-06T12:07:59;100724.38;;;23.78;100.00
37860;BME280;23698;52.014;5.190;2023-08-06T12:10:54;100720.97;;;24.02;100.00
37860;BME280;23698;52.014;5.190;2023-08-06T12:13:42;100723.41;;;24.13;100.00
37860;BME280;23698;52.014;5.190;2023-08-06T12:16:29;100732.41;;;23.85;100.00
37860;BME280;23698;52.014;5.190;2023-08-06T12:19:18;100730.44;;;24.40;100.00
37860;BME280;23698;52.014;5.190;2023-08-06T12:22:04;100726.91;;;25.03;100.00
37860;BME280;23698;52.014;5.190;2023-08-06T12:24:51;100730.75;;;25.37;100.00
37860;BME280;23698;52.014;5.190;2023-08-06T12:27:37;100736.47;;;25.46;100.00
37860;BME280;23698;52.014;5.190;2023-08-06T12:30:25;100740.00;;;24.98;100.00
37860;BME280;23698;52.014;5.190;2023-08-06T12:33:12;100743.94;;;24.52;100.00
37860;BME280;23698;52.014;5.190;2023-08-06T12:35:59;100742.22;;;24.61;100.00
37860;BME280;23698;52.014;5.190;2023-08-06T12:38:45;100738.78;;;23.75;100.00
37860;BME280;23698;52.014;5.190;2023-08-06T12:41:31;100736.78;;;23.96;100.00
37860;BME280;23698;52.014;5.190;2023-08-06T12:44:17;100743.84;;;24.23;100.00
37860;BME280;23698;52.014;5.190;2023-08-06T12:47:06;100750.78;;;23.40;100.00
37860;BME280;23698;52.014;5.190;2023-08-06T12:49:52;100753.19;;;23.82;100.00
37860;BME280;23698;52.014;5.190;2023-08-06T12:52:39;100747.72;;;23.46;100.00
37860;BME280;23698;52.014;5.190;2023-08-06T12:55:25;100758.13;;;23.90;100.00
37860;BME280;23698;52.014;5.190;2023-08-06T12:58:23;100760.22;;;24.14;100.00
37860;BME280;23698;52.014;5.190;2023-08-06T13:01:11;100762.69;;;23.04;100.00
37860;BME280;23698;52.014;5.190;2023-08-06T13:04:04;100761.81;;;23.50;100.00
37860;BME280;23698;52.014;5.190;2023-08-06T13:07:06;100772.50;;;24.92;100.00
37860;BME280;23698;52.014;5.190;2023-08-06T13:09:53;100779.34;;;25.34;100.00
37860;BME280;23698;52.014;5.190;2023-08-06T13:12:39;100778.47;;;25.04;100.00
37860;BME280;23698;52.014;5.190;2023-08-06T13:15:25;100786.47;;;24.77;100.00
37860;BME280;23698;52.014;5.190;2023-08-06T13:18:12;100782.19;;;23.90;100.00
37860;BME280;23698;52.014;5.190;2023-08-06T13:20:59;100788.63;;;24.35;100.00
37860;BME280;23698;52.014;5.190;2023-08-06T13:23:45;100788.91;;;22.55;100.00
37860;BME280;23698;52.014;5.190;2023-08-06T13:26:32;100795.06;;;23.24;100.00
37860;BME280;23698;52.014;5.190;2023-08-06T13:29:19;100794.78;;;23.26;100.00
37860;BME280;23698;52.014;5.190;2023-08-06T13:32:05;100800.50;;;23.70;100.00
37860;BME280;23698;52.014;5.190;2023-08-06T13:34:51;100797.91;;;24.10;100.00
37860;BME280;23698;52.014;5.190;2023-08-06T13:37:39;100795.78;;;24.46;100.00
37860;BME280;23698;52.014;5.190;2023-08-06T13:40:25;100799.19;;;23.32;100.00
37860;BME280;23698;52.014;5.190;2023-08-06T13:43:11;100801.31;;;23.86;100.00
37860;BME280;23698;52.014;5.190;2023-08-06T13:46:01;100809.72;;;24.31;100.00
37860;BME280;23698;52.014;5.190;2023-08-06T13:48:47;100810.81;;;24.30;100.00
37860;BME280;23698;52.014;5.190;2023-08-06T13:51:36;100808.47;;;25.32;100.00
37860;BME280;23698;52.014;5.190;2023-08-06T13:54:25;100816.00;;;25.60;100.00
37860;BME280;23698;52.014;5.190;2023-08-06T13:57:11;100816.97;;;25.11;100.00
37860;BME280;23698;52.014;5.190;2023-08-06T13:59:57;100818.00;;;24.41;100.00
37860;BME280;23698;52.014;5.190;2023-08-06T14:02:43;100827.25;;;24.71;100.00
37860;BME280;23698;52.014;5.190;2023-08-06T14:05:30;100823.56;;;24.81;100.00
37860;BME280;23698;52.014;5.190;2023-08-06T14:08:16;100825.69;;;24.44;100.00
37860;BME280;23698;52.014;5.190;2023-08-06T14:11:04;100827.41;;;23.39;100.00
37860;BME280;23698;52.014;5.190;2023-08-06T14:13:51;100838.72;;;23.53;100.00
37860;BME280;23698;52.014;5.190;2023-08-06T14:16:37;100826.34;;;24.31;100.00
37860;BME280;23698;52.014;5.190;2023-08-06T14:19:23;100837.91;;;23.58;100.00
37860;BME280;23698;52.014;5.190;2023-08-06T14:22:09;100852.69;;;24.23;100.00
37860;BME280;23698;52.014;5.190;2023-08-06T14:24:55;100848.06;;;24.03;100.00
37860;BME280;23698;52.014;5.190;2023-08-06T14:27:43;100849.59;;;24.30;100.00
37860;BME280;23698;52.014;5.190;2023-08-06T14:30:29;100850.75;;;24.79;100.00
37860;BME280;23698;52.014;5.190;2023-08-06T14:33:15;100860.47;;;25.16;100.00
37860;BME280;23698;52.014;5.190;2023-08-06T14:36:11;100857.28;;;23.22;100.00
37860;BME280;23698;52.014;5.190;2023-08-06T14:39:02;100856.94;;;23.80;100.00
37860;BME280;23698;52.014;5.190;2023-08-06T14:41:48;100863.00;;;23.97;100.00
37860;BME280;23698;52.014;5.190;2023-08-06T14:44:36;100873.59;;;23.54;100.00
37860;BME280;23698;52.014;5.190;2023-08-06T14:47:22;100881.31;;;23.72;100.00
37860;BME280;23698;52.014;5.190;2023-08-06T14:50:10;100875.00;;;23.21;100.00
37860;BME280;23698;52.014;5.190;2023-08-06T14:52:56;100875.56;;;22.29;100.00
37860;BME280;23698;52.014;5.190;2023-08-06T14:55:49;100881.88;;;21.44;100.00
37860;BME280;23698;52.014;5.190;2023-08-06T14:59:01;100882.66;;;22.14;100.00
37860;BME280;23698;52.014;5.190;2023-08-06T16:01:44;101005.03;;;22.73;100.00
37860;BME280;23698;52.014;5.190;2023-08-06T16:04:31;101003.88;;;21.83;100.00
37860;BME280;23698;52.014;5.190;2023-08-06T16:07:18;101015.13;;;21.77;100.00
37860;BME280;23698;52.014;5.190;2023-08-06T16:10:05;101022.06;;;22.54;100.00
37860;BME280;23698;52.014;5.190;2023-08-06T16:12:52;101025.50;;;22.77;100.00
37860;BME280;23698;52.014;5.190;2023-08-06T16:55:18;101062.53;;;23.39;100.00
37860;BME280;23698;52.014;5.190;2023-08-06T16:58:04;101055.09;;;22.81;100.00
37860;BME280;23698;52.014;5.190;2023-08-06T17:00:53;101061.06;;;22.25;100.00
37860;BME280;23698;52.014;5.190;2023-08-06T17:03:41;101062.69;;;21.89;100.00
37860;BME280;23698;52.014;5.190;2023-08-06T17:06:27;101069.28;;;22.48;100.00
37860;BME280;23698;52.014;5.190;2023-08-06T17:09:19;101089.50;;;22.21;100.00
37860;BME280;23698;52.014;5.190;2023-08-06T17:12:26;101087.56;;;21.18;100.00
37860;BME280;23698;52.014;5.190;2023-08-06T17:15:37;101094.03;;;22.80;100.00
37860;BME280;23698;52.014;5.190;2023-08-06T17:18:44;101086.31;;;22.39;100.00
37860;BME280;23698;52.014;5.190;2023-08-06T17:21:46;101099.97;;;23.04;100.00
37860;BME280;23698;52.014;5.190;2023-08-06T17:25:04;101103.34;;;22.63;100.00
37860;BME280;23698;52.014;5.190;2023-08-06T17:28:03;101109.03;;;21.16;100.00
37860;BME280;23698;52.014;5.190;2023-08-06T17:30:58;101112.56;;;22.10;100.00
37860;BME280;23698;52.014;5.190;2023-08-06T17:33:45;101113.28;;;21.67;100.00
37860;BME280;23698;52.014;5.190;2023-08-06T17:36:36;101113.69;;;20.93;100.00
37860;BME280;23698;52.014;5.190;2023-08-06T17:39:33;101126.31;;;23.12;100.00
37860;BME280;23698;52.014;5.190;2023-08-06T17:42:26;101124.53;;;22.95;100.00
37860;BME280;23698;52.014;5.190;2023-08-06T17:45:46;101124.03;;;22.61;100.00
37860;BME280;23698;52.014;5.190;2023-08-06T17:48:48;101140.09;;;21.72;100.00
37860;BME280;23698;52.014;5.190;2023-08-06T17:51:44;101120.22;;;21.04;100.00
37860;BME280;23698;52.014;5.190;2023-08-06T17:54:54;101133.09;;;22.51;100.00
37860;BME280;23698;52.014;5.190;2023-08-06T17:57:56;101138.75;;;23.09;100.00
37860;BME280;23698;52.014;5.190;2023-08-06T18:00:47;101147.44;;;22.91;100.00
37860;BME280;23698;52.014;5.190;2023-08-06T18:03:40;101149.09;;;23.40;100.00
37860;BME280;23698;52.014;5.190;2023-08-06T18:06:35;101153.22;;;24.41;100.00
37860;BME280;23698;52.014;5.190;2023-08-06T18:09:33;101152.47;;;21.69;100.00
37860;BME280;23698;52.014;5.190;2023-08-06T18:12:23;101176.69;;;21.45;100.00
37860;BME280;23698;52.014;5.190;2023-08-06T18:15:19;101163.25;;;21.98;100.00
37860;BME280;23698;52.014;5.190;2023-08-06T18:18:10;101156.00;;;20.82;100.00
37860;BME280;23698;52.014;5.190;2023-08-06T18:21:16;101160.03;;;22.71;100.00
37860;BME280;23698;52.014;5.190;2023-08-06T18:24:08;101156.81;;;22.85;100.00
37860;BME280;23698;52.014;5.190;2023-08-06T18:27:03;101155.25;;;21.97;100.00
37860;BME280;23698;52.014;5.190;2023-08-06T18:30:03;101140.75;;;22.39;100.00
37860;BME280;23698;52.014;5.190;2023-08-06T18:32:58;101151.16;;;22.04;100.00
37860;BME280;23698;52.014;5.190;2023-08-06T18:35:56;101155.69;;;21.88;100.00
37860;BME280;23698;52.014;5.190;2023-08-06T18:38:57;101155.44;;;21.02;100.00
37860;BME280;23698;52.014;5.190;2023-08-06T18:41:47;101155.16;;;21.20;100.00
37860;BME280;23698;52.014;5.190;2023-08-06T18:44:39;101154.44;;;20.69;100.00
37860;BME280;23698;52.014;5.190;2023-08-06T18:47:30;101150.38;;;20.93;100.00
37860;BME280;23698;52.014;5.190;2023-08-06T18:50:23;101150.28;;;21.27;100.00
37860;BME280;23698;52.014;5.190;2023-08-06T18:53:20;101153.31;;;20.87;100.00
37860;BME280;23698;52.014;5.190;2023-08-06T18:56:12;101148.97;;;20.74;100.00
37860;BME280;23698;52.014;5.190;2023-08-06T18:58:59;101146.63;;;20.83;100.00
37860;BME280;23698;52.014;5.190;2023-08-06T19:45:52;101155.28;;;20.07;100.00
37860;BME280;23698;52.014;5.190;2023-08-06T19:48:38;101163.31;;;20.59;100.00
37860;BME280;23698;52.014;5.190;2023-08-06T19:51:24;101159.81;;;20.81;100.00
37860;BME280;23698;52.014;5.190;2023-08-06T19:54:11;101153.91;;;20.38;100.00
37860;BME280;23698;52.014;5.190;2023-08-06T19:56:58;101151.28;;;19.97;100.00
37860;BME280;23698;52.014;5.190;2023-08-06T19:59:44;101155.91;;;20.26;100.00
37860;BME280;23698;52.014;5.190;2023-08-06T20:02:46;101161.63;;;20.58;100.00
37860;BME280;23698;52.014;5.190;2023-08-06T20:05:32;101171.31;;;20.44;100.00
37860;BME280;23698;52.014;5.190;2023-08-06T20:11:47;101164.47;;;19.43;100.00
37860;BME280;23698;52.014;5.190;2023-08-06T20:17:51;101158.88;;;19.38;100.00
37860;BME280;23698;52.014;5.190;2023-08-06T20:20:38;101164.16;;;19.68;100.00
37860;BME280;23698;52.014;5.190;2023-08-06T20:23:25;101157.16;;;19.89;100.00
37860;BME280;23698;52.014;5.190;2023-08-06T20:26:14;101174.41;;;20.13;100.00
37860;BME280;23698;52.014;5.190;2023-08-06T20:29:02;101158.31;;;19.76;100.00
37860;BME280;23698;52.014;5.190;2023-08-06T20:31:52;101157.91;;;19.32;100.00
37860;BME280;23698;52.014;5.190;2023-08-06T20:34:42;101167.81;;;20.31;100.00
37860;BME280;23698;52.014;5.190;2023-08-06T20:37:30;101167.50;;;20.62;100.00
37860;BME280;23698;52.014;5.190;2023-08-06T20:40:16;101158.91;;;19.67;100.00
37860;BME280;23698;52.014;5.190;2023-08-06T20:43:05;101162.47;;;20.25;100.00
37860;BME280;23698;52.014;5.190;2023-08-06T20:46:02;101159.84;;;20.64;100.00
37860;BME280;23698;52.014;5.190;2023-08-06T20:48:50;101173.50;;;20.59;100.00
37860;BME280;23698;52.014;5.190;2023-08-06T20:51:38;101175.03;;;20.66;100.00
37860;BME280;23698;52.014;5.190;2023-08-06T20:54:24;101170.22;;;20.28;100.00
37860;BME280;23698;52.014;5.190;2023-08-06T20:57:10;101176.13;;;20.19;100.00
37860;BME280;23698;52.014;5.190;2023-08-06T20:59:57;101168.31;;;20.28;100.00
37860;BME280;23698;52.014;5.190;2023-08-06T21:02:43;101182.69;;;20.47;100.00
37860;BME280;23698;52.014;5.190;2023-08-06T21:05:29;101189.53;;;20.62;100.00
37860;BME280;23698;52.014;5.190;2023-08-06T21:08:17;101169.34;;;19.93;100.00
37860;BME280;23698;52.014;5.190;2023-08-06T21:11:05;101168.63;;;19.05;100.00
37860;BME280;23698;52.014;5.190;2023-08-06T21:13:52;101181.16;;;20.23;100.00
37860;BME280;23698;52.014;5.190;2023-08-06T21:16:38;101187.72;;;20.67;100.00
37860;BME280;23698;52.014;5.190;2023-08-06T21:19:26;101190.91;;;20.30;100.00
37860;BME280;23698;52.014;5.190;2023-08-06T21:22:12;101199.25;;;20.18;100.00
37860;BME280;23698;52.014;5.190;2023-08-06T21:24:59;101200.56;;;20.62;100.00
37860;BME280;23698;52.014;5.190;2023-08-06T21:27:46;101200.25;;;19.84;100.00
37860;BME280;23698;52.014;5.190;2023-08-06T21:30:33;101193.66;;;19.85;100.00
37860;BME280;23698;52.014;5.190;2023-08-06T21:33:19;101193.41;;;20.15;100.00
37860;BME280;23698;52.014;5.190;2023-08-06T21:36:06;101195.53;;;20.42;100.00
37860;BME280;23698;52.014;5.190;2023-08-06T21:38:52;101217.16;;;21.01;100.00
37860;BME280;23698;52.014;5.190;2023-08-06T21:41:40;101202.00;;;20.18;100.00
37860;BME280;23698;52.014;5.190;2023-08-06T21:44:29;101212.63;;;20.44;100.00
37860;BME280;23698;52.014;5.190;2023-08-06T21:47:16;101205.97;;;21.07;100.00
37860;BME280;23698;52.014;5.190;2023-08-06T21:50:02;101211.00;;;20.77;100.00
37860;BME280;23698;52.014;5.190;2023-08-06T21:52:48;101200.19;;;21.09;100.00
37860;BME280;23698;52.014;5.190;2023-08-06T21:55:34;101201.50;;;20.67;100.00
37860;BME280;23698;52.014;5.190;2023-08-06T21:58:22;101218.94;;;21.68;100.00
37860;BME280;23698;52.014;5.190;2023-08-06T22:01:09;101214.97;;;21.20;100.00
37860;BME280;23698;52.014;5.190;2023-08-06T22:03:56;101207.84;;;20.22;100.00
37860;BME280;23698;52.014;5.190;2023-08-06T22:06:42;101216.41;;;21.66;100.00
37860;BME280;23698;52.014;5.190;2023-08-06T22:09:28;101218.81;;;20.51;100.00
37860;BME280;23698;52.014;5.190;2023-08-06T22:12:15;101219.44;;;20.87;100.00
37860;BME280;23698;52.014;5.190;2023-08-06T22:15:02;101220.97;;;20.49;100.00
